Wetterdaten: aktuell Mittwoch, 15.08.2018 09:20
Datum Zeit Temperatur Bodentemp. Luftfeuchte Luftdruck Niederschlag Windgeschw. Windrichtung Windrichtung Sonnenschein Nieder.dauer Evapotrans. Solarstrahl. Taupunkt Windchill Windben
15.08.2018 09:20 18,1 C 17,8 C 92 % 1015,7 hPa 0,0 l/m 3,6 km/h (1 Bft) SW 225 12 min 0 min 0 mm 153 W/m 16,8 C 18,1 C 9,0 km/h (2 Bft)
15.08.2018 08:20 16,4 C 16,7 C 100 % 1015,3 hPa 0,0 l/m 0,0 km/h (0 Bft) N 0 0 min 0 min 0 mm 83 W/m 16,4 C 16,4 C 0,0 km/h (0 Bft)
15.08.2018 07:20 15,6 C 15,6 C 100 % 1014,9 hPa 0,0 l/m 0,0 km/h (0 Bft) N 0 0 min 0 min 0 mm 42 W/m 15,6 C 15,6 C 0,0 km/h (0 Bft)
15.08.2018 06:20 15,1 C 15,0 C 100 % 1014,5 hPa 0,0 l/m 0,0 km/h (0 Bft) N 0 0 min 0 min 0 mm 11 W/m 15,1 C 15,1 C 0,0 km/h (0 Bft)
15.08.2018 05:20 15,1 C 14,4 C 100 % 1014,5 hPa 0,0 l/m 0,0 km/h (0 Bft) N 0 0 min 0 min 0 mm 0 W/m 15,1 C 15,1 C 0,0 km/h (0 Bft)
15.08.2018 04:20 15,3 C 15,0 C 99 % 1014,4 hPa 0,0 l/m 0,0 km/h (0 Bft) N 0 0 min 0 min 0 mm 0 W/m 15,1 C 15,3 C 0,0 km/h (0 Bft)
15.08.2018 03:20 15,4 C 15,0 C 100 % 1014,3 hPa 0,0 l/m 0,0 km/h (0 Bft) N 0 0 min 0 min 0 mm 0 W/m 15,4 C 15,4 C 0,0 km/h (0 Bft)
15.08.2018 02:20 15,9 C 15,6 C 99 % 1014,4 hPa 0,0 l/m 0,0 km/h (0 Bft) N 0 0 min 0 min 0 mm 0 W/m 15,7 C 15,9 C 0,0 km/h (0 Bft)
15.08.2018 01:20 16,4 C 15,6 C 99 % 1013,8 hPa 0,0 l/m 1,8 km/h (1 Bft) W-SW 247 0 min 0 min 0 mm 0 W/m 16,2 C 16,4 C 10,8 km/h (2 Bft)
15.08.2018 00:20 16,7 C 16,1 C 99 % 1013,4 hPa 0,0 l/m 3,6 km/h (1 Bft) W 270 0 min 0 min 0 mm 0 W/m 16,5 C 16,7 C 10,8 km/h (2 Bft)
14.08.2018 23:20 17,2 C 16,7 C 100 % 1012,8 hPa 0,2 l/m 0,0 km/h (0 Bft) N 0 0 min 24 min 0 mm 0 W/m 17,2 C 17,2 C 0,0 km/h (0 Bft)
14.08.2018 22:20 17,8 C 17,2 C 100 % 1012,1 hPa 0,0 l/m 7,2 km/h (2 Bft) W-NW 292 0 min 4 min 0 mm 0 W/m 17,8 C 17,4 C 14,4 km/h (3 Bft)
14.08.2018 21:20 18,1 C 17,8 C 100 % 1011,8 hPa 2,2 l/m 0,0 km/h (0 Bft) N 0 0 min 39 min 0 mm 0 W/m 18,1 C 18,1 C 0,0 km/h (0 Bft)
14.08.2018 20:20 19,8 C 19,4 C 84 % 1010,8 hPa 0,0 l/m 0,0 km/h (0 Bft) N 0 0 min 0 min 0 mm 9 W/m 17,0 C 19,8 C 0,0 km/h (0 Bft)
14.08.2018 19:20 20,2 C 20,0 C 80 % 1010,3 hPa 0,0 l/m 9,0 km/h (2 Bft) N-NW 337 3 min 0 min 0 mm 98 W/m 16,6 C 19,2 C 17,9 km/h (3 Bft)
14.08.2018 18:20 21,3 C 21,1 C 76 % 1009,8 hPa 0,0 l/m 3,6 km/h (1 Bft) W 270 16 min 0 min 0 mm 279 W/m 16,9 C 21,3 C 9,0 km/h (2 Bft)
14.08.2018 17:20 21,3 C 21,1 C 73 % 1009,2 hPa 0,0 l/m 10,8 km/h (2 Bft) W-NW 292 18 min 0 min 0 mm 163 W/m 16,3 C 19,8 C 14,4 km/h (3 Bft)
14.08.2018 16:20 22,7 C 22,8 C 68 % 1008,6 hPa 0,0 l/m 10,8 km/h (2 Bft) W-SW 247 23 min 0 min 0 mm 715 W/m 16,5 C 21,4 C 26,9 km/h (4 Bft)
14.08.2018 15:20 21,4 C 21,1 C 74 % 1008,1 hPa 0,0 l/m 9,0 km/h (2 Bft) NW 315 8 min 0 min 0 mm 149 W/m 16,6 C 20,5 C 16,1 km/h (3 Bft)
14.08.2018 14:20 21,0 C 20,0 C 84 % 1007,6 hPa 0,2 l/m 3,6 km/h (1 Bft) NW 315 9 min 16 min 0 mm 229 W/m 18,2 C 21,0 C 7,2 km/h (2 Bft)
14.08.2018 13:20 22,1 C 21,1 C 74 % 1007,2 hPa 0,0 l/m 5,4 km/h (1 Bft) W-NW 292 42 min 0 min 0 mm 904 W/m 17,2 C 22,1 C 10,8 km/h (2 Bft)
14.08.2018 12:20 20,7 C 18,9 C 84 % 1007,1 hPa 0,0 l/m 0,0 km/h (0 Bft) N 0 23 min 1 min 0 mm 824 W/m 17,9 C 20,7 C 0,0 km/h (0 Bft)
14.08.2018 11:20 19,3 C 18,9 C 96 % 1006,7 hPa 0,0 l/m 9,0 km/h (2 Bft) SW 225 5 min 0 min 0 mm 202 W/m 18,6 C 18,2 C 16,1 km/h (3 Bft)
14.08.2018 10:20 17,9 C 17,8 C 100 % 1006,6 hPa 0,0 l/m 1,8 km/h (1 Bft) W-SW 247 1 min 0 min 0 mm 364 W/m 17,9 C 17,9 C 9,0 km/h (2 Bft)
14.08.2018 10:00 17,7 C 17,8 C 100 % 1006,6 hPa 0,0 l/m 5,4 km/h (1 Bft) SW 225 0 min 0 min 0 mm 176 W/m 17,7 C 17,7 C 9,0 km/h (2 Bft)
_ Min-Zeit 04:55 04:23 16:25 10:00 - 10:01 - - - - - - 04:55 04:55 10:01
Minimum _ 14,8 C 14,4 C 65 % 1006,6 hPa - 0,0 km/h (0 Bft) - - - - - - 14,8 C 14,8 C 0,0 km/h (0 Bft)
_ Max-Zeit 16:23 16:21 10:00 09:15 14:04 16:53 - - 10:20 11:41 13:00 12:56 10:43 16:21 16:36
Maximum _ 22,9 C 23,3 C 100 % 1015,7 hPa 0,2 l/m 17,9 km/h
W-NW (3 Bft)
- - 1 min 1 min 0 mm 969 W/m 19,1 C 22,8 C 39,5 km/h
W-NW (6 Bft)
Durchschnitt _ 18,3 C 17,9 C 91 % 1011,0 hPa #2,6 l/m 2,5 km/h (1 Bft) NW - #12 min. #0 min. #0,101 mm 83 W/m 16,7 C 18,1 C 6,0 km/h (2 Bft)